createdAt,value
2019-06-08T00:00:27.293Z,27.15
2019-06-08T00:02:57.737Z,24.18
2019-06-08T00:05:28.341Z,35.98
2019-06-08T00:07:58.727Z,29.30
2019-06-08T00:10:29.634Z,23.57
2019-06-08T00:13:00.005Z,25.70
2019-06-08T00:15:30.487Z,24.40
2019-06-08T00:18:00.865Z,23.73
2019-06-08T00:20:31.352Z,23.90
2019-06-08T00:23:01.727Z,26.07
2019-06-08T00:25:32.118Z,22.52
2019-06-08T00:28:02.506Z,24.65
2019-06-08T00:30:32.985Z,23.32
2019-06-08T00:33:03.373Z,21.85
2019-06-08T00:35:33.848Z,20.68
2019-06-08T00:38:04.306Z,25.05
2019-06-08T00:40:34.725Z,26.07
2019-06-08T00:43:05.187Z,23.95
2019-06-08T00:45:36.713Z,24.95
2019-06-08T00:48:07.092Z,20.90
2019-06-08T00:50:37.655Z,23.45
2019-06-08T00:53:08.024Z,22.40
2019-06-08T00:55:38.422Z,23.22
2019-06-08T00:58:08.796Z,20.30
2019-06-08T01:00:39.786Z,24.15
2019-06-08T01:03:11.180Z,22.62
2019-06-08T01:05:41.586Z,23.95
2019-06-08T01:08:12.121Z,19.23
2019-06-08T01:10:42.662Z,20.43
2019-06-08T01:13:13.153Z,22.02
2019-06-08T01:15:43.562Z,22.60
2019-06-08T01:18:13.946Z,23.00
2019-06-08T01:20:44.803Z,23.15
2019-06-08T01:23:15.179Z,22.10
2019-06-08T01:25:45.654Z,21.02
2019-06-08T01:28:16.390Z,23.50
2019-06-08T01:30:47.085Z,23.60
2019-06-08T01:33:17.528Z,20.05
2019-06-08T01:35:47.995Z,24.10
2019-06-08T01:38:18.512Z,20.65
2019-06-08T01:40:48.985Z,20.30
2019-06-08T01:43:19.456Z,24.63
2019-06-08T01:45:50.450Z,21.25
2019-06-08T01:48:22.290Z,19.85
2019-06-08T01:50:53.714Z,20.57
2019-06-08T01:53:24.668Z,19.17
2019-06-08T01:55:55.245Z,24.20
2019-06-08T01:58:25.707Z,27.05
2019-06-08T02:00:56.125Z,25.85
2019-06-08T02:03:26.588Z,21.50
2019-06-08T02:05:57.002Z,24.05
2019-06-08T02:08:28.614Z,27.77
2019-06-08T02:10:59.089Z,23.22
2019-06-08T02:13:30.793Z,22.20
2019-06-08T02:16:01.566Z,23.02
2019-06-08T02:18:39.819Z,22.90
2019-06-08T02:21:04.154Z,24.25
2019-06-08T02:23:35.171Z,24.20
2019-06-08T02:26:05.689Z,21.10
2019-06-08T02:28:36.288Z,21.57
2019-06-08T02:31:06.731Z,22.05
2019-06-08T02:33:37.419Z,24.15
2019-06-08T02:36:07.876Z,21.75
2019-06-08T02:38:39.561Z,22.48
2019-06-08T02:41:10.127Z,23.47
2019-06-08T02:43:40.646Z,19.07
2019-06-08T02:46:11.063Z,23.70
2019-06-08T02:49:02.301Z,21.73
2019-06-08T02:51:13.601Z,25.20
2019-06-08T02:53:43.984Z,21.62
2019-06-08T02:56:15.677Z,24.20
2019-06-08T02:58:46.310Z,22.48
2019-06-08T03:01:16.867Z,25.32
2019-06-08T03:03:47.221Z,21.50
2019-06-08T03:06:17.786Z,22.22
2019-06-08T03:08:48.307Z,25.05
2019-06-08T03:11:20.312Z,20.92
2019-06-08T03:13:50.820Z,23.67
2019-06-08T03:16:21.719Z,21.97
2019-06-08T03:18:52.285Z,21.02
2019-06-08T03:21:22.678Z,22.82
2019-06-08T03:23:53.144Z,25.10
2019-06-08T03:26:23.913Z,21.48
2019-06-08T03:28:54.281Z,23.27
2019-06-08T03:31:24.680Z,24.32
2019-06-08T03:33:56.670Z,26.70
2019-06-08T03:36:27.798Z,21.35
2019-06-08T03:38:58.184Z,21.70
2019-06-08T03:41:28.614Z,23.52
2019-06-08T03:43:59.253Z,24.15
2019-06-08T03:46:29.937Z,22.60
2019-06-08T03:49:00.287Z,20.32
2019-06-08T03:51:35.078Z,22.75
2019-06-08T03:54:03.129Z,22.67
2019-06-08T03:56:33.539Z,21.17
2019-06-08T03:59:04.561Z,22.22
2019-06-08T04:01:35.151Z,22.70
2019-06-08T04:04:05.504Z,25.17
2019-06-08T04:06:37.616Z,22.07
2019-06-08T04:09:09.020Z,25.72
2019-06-08T04:11:40.171Z,23.05
2019-06-08T04:14:11.582Z,20.65
2019-06-08T04:16:42.920Z,20.82
2019-06-08T04:19:14.426Z,21.93
2019-06-08T04:21:46.277Z,23.35
2019-06-08T04:24:16.854Z,21.15
2019-06-08T04:26:47.355Z,36.08
2019-06-08T04:29:17.795Z,46.48
2019-06-08T04:31:50.019Z,30.92
2019-06-08T04:34:20.275Z,24.72
2019-06-08T04:36:50.657Z,23.10
2019-06-08T04:39:20.998Z,22.45
2019-06-08T04:41:51.416Z,26.80
2019-06-08T04:44:21.893Z,26.77
2019-06-08T04:46:52.279Z,26.82
2019-06-08T04:49:22.664Z,24.67
2019-06-08T04:51:53.169Z,24.32
2019-06-08T04:54:23.623Z,23.52
2019-06-08T04:56:54.191Z,28.02
2019-06-08T04:59:24.568Z,24.80
2019-06-08T05:01:55.165Z,24.77
2019-06-08T05:04:25.521Z,23.77
2019-06-08T05:06:55.925Z,25.92
2019-06-08T05:09:26.382Z,23.40
2019-06-08T05:11:56.849Z,30.20
2019-06-08T05:14:27.223Z,30.90
2019-06-08T05:16:57.649Z,28.92
2019-06-08T05:19:28.010Z,31.30
2019-06-08T05:21:58.432Z,28.52
2019-06-08T05:24:28.866Z,31.45
2019-06-08T05:26:59.763Z,28.07
2019-06-08T05:29:30.202Z,26.20
2019-06-08T05:32:00.683Z,24.12
2019-06-08T05:34:31.127Z,22.52
2019-06-08T05:37:01.599Z,20.70
2019-06-08T05:39:32.130Z,23.40
2019-06-08T05:42:02.538Z,25.60
2019-06-08T05:44:32.911Z,26.50
2019-06-08T05:47:03.387Z,24.35
2019-06-08T05:49:33.954Z,23.87
2019-06-08T05:52:04.941Z,22.65
2019-06-08T05:54:35.297Z,22.32
2019-06-08T05:57:05.881Z,22.62
2019-06-08T05:59:36.483Z,20.95
2019-06-08T06:02:06.888Z,23.52
2019-06-08T06:04:37.332Z,20.55
2019-06-08T06:07:07.715Z,20.52
2019-06-08T06:09:38.175Z,28.10
2019-06-08T06:12:08.707Z,21.97
2019-06-08T06:14:39.065Z,21.60
2019-06-08T06:17:09.467Z,25.05
2019-06-08T06:19:41.068Z,21.23
2019-06-08T06:22:11.569Z,21.25
2019-06-08T06:24:43.707Z,24.37
2019-06-08T06:27:14.289Z,21.30
2019-06-08T06:29:45.459Z,24.65
2019-06-08T06:32:15.956Z,22.50
2019-06-08T06:34:47.844Z,21.65
2019-06-08T06:37:18.363Z,21.55
2019-06-08T06:39:50.067Z,20.77
2019-06-08T06:42:20.616Z,26.35
2019-06-08T06:44:52.445Z,21.00
2019-06-08T06:47:23.188Z,21.48
2019-06-08T06:49:53.603Z,21.70
2019-06-08T06:52:24.172Z,23.80
2019-06-08T06:54:54.559Z,20.82
2019-06-08T06:57:24.977Z,20.48
2019-06-08T06:59:55.438Z,21.15
2019-06-08T07:02:26.058Z,19.05
2019-06-08T07:04:56.471Z,19.77
2019-06-08T07:07:27.040Z,19.50
2019-06-08T07:09:57.418Z,19.55
2019-06-08T07:12:27.900Z,19.55
2019-06-08T07:14:58.284Z,19.37
2019-06-08T07:17:28.799Z,19.32
2019-06-08T07:19:59.204Z,21.93
2019-06-08T07:22:29.624Z,17.40
2019-06-08T07:25:00.079Z,17.42
2019-06-08T07:27:30.550Z,17.55
2019-06-08T07:30:01.069Z,19.80
2019-06-08T07:32:31.583Z,18.40
2019-06-08T07:35:01.959Z,17.77
2019-06-08T07:37:32.655Z,18.80
2019-06-08T07:40:06.103Z,19.50
2019-06-08T07:42:37.088Z,18.40
2019-06-08T07:45:08.402Z,18.23
2019-06-08T07:47:38.819Z,18.12
2019-06-08T07:50:09.754Z,17.07
2019-06-08T07:52:40.260Z,17.45
2019-06-08T07:55:10.736Z,17.62
2019-06-08T07:57:41.325Z,18.02
2019-06-08T08:00:11.753Z,19.57
2019-06-08T08:02:42.305Z,17.30
2019-06-08T08:05:12.744Z,15.95
2019-06-08T08:07:43.140Z,16.65
2019-06-08T08:10:14.396Z,16.82
2019-06-08T08:12:44.849Z,19.02
2019-06-08T08:15:15.358Z,17.90
2019-06-08T08:17:45.705Z,17.67
2019-06-08T08:20:17.221Z,17.60
2019-06-08T08:22:49.762Z,16.75
2019-06-08T08:25:20.294Z,15.78
2019-06-08T08:27:51.961Z,16.73
2019-06-08T08:30:23.074Z,15.50
2019-06-08T08:32:55.087Z,17.67
2019-06-08T08:35:27.990Z,17.75
2019-06-08T08:38:03.889Z,17.65
2019-06-08T08:40:31.664Z,16.97
2019-06-08T08:43:02.151Z,16.15
2019-06-08T08:45:32.626Z,15.18
2019-06-08T08:48:21.095Z,16.67
2019-06-08T08:50:38.273Z,17.40
2019-06-08T08:53:08.812Z,16.62
2019-06-08T08:55:39.183Z,18.23
2019-06-08T08:58:09.578Z,15.45
2019-06-08T09:00:41.192Z,15.20
2019-06-08T09:03:26.058Z,13.50
2019-06-08T09:05:43.925Z,15.00
2019-06-08T09:08:14.416Z,14.83
2019-06-08T09:10:48.073Z,13.75
2019-06-08T09:13:18.845Z,13.50
2019-06-08T09:15:49.221Z,12.05
2019-06-08T09:18:19.735Z,12.58
2019-06-08T09:20:50.096Z,13.95
2019-06-08T09:23:21.887Z,13.22
2019-06-08T09:25:55.064Z,13.85
2019-06-08T09:28:25.339Z,14.13
2019-06-08T09:30:56.703Z,13.78
2019-06-08T09:33:28.849Z,13.32
2019-06-08T09:36:01.586Z,13.40
2019-06-08T09:38:31.926Z,13.28
2019-06-08T09:41:04.886Z,12.88
2019-06-08T09:43:34.899Z,13.38
2019-06-08T09:46:08.749Z,13.65
2019-06-08T09:48:38.267Z,13.32
2019-06-08T09:51:09.843Z,14.10
2019-06-08T09:53:41.624Z,14.00
2019-06-08T09:56:13.332Z,14.18
2019-06-08T09:58:43.731Z,14.23
2019-06-08T10:01:14.215Z,13.58
2019-06-08T10:03:44.766Z,13.75
2019-06-08T10:06:18.037Z,13.20
2019-06-08T10:08:48.143Z,14.10
2019-06-08T10:11:18.690Z,12.18
2019-06-08T10:13:49.190Z,12.30
2019-06-08T10:16:19.576Z,13.22
2019-06-08T10:18:51.561Z,13.60
2019-06-08T10:21:22.161Z,12.90
2019-06-08T10:23:52.583Z,13.08
2019-06-08T10:26:23.323Z,12.82
2019-06-08T10:28:55.257Z,13.22
2019-06-08T10:31:36.445Z,13.15
2019-06-08T10:34:00.562Z,12.95
2019-06-08T10:36:30.026Z,12.65
2019-06-08T10:39:03.852Z,13.25
2019-06-08T10:41:32.584Z,12.78
2019-06-08T10:44:03.504Z,13.62
2019-06-08T10:46:34.041Z,12.88
2019-06-08T10:49:05.959Z,13.62
2019-06-08T10:51:40.148Z,12.75
2019-06-08T10:54:10.979Z,14.90
2019-06-08T10:56:41.638Z,13.18
2019-06-08T10:59:12.553Z,13.00
2019-06-08T11:01:43.102Z,13.00
2019-06-08T11:04:13.618Z,14.05
2019-06-08T11:06:47.837Z,13.90
2019-06-08T11:09:18.917Z,15.30
2019-06-08T11:11:49.678Z,16.15
2019-06-08T11:14:22.666Z,16.70
2019-06-08T11:16:52.316Z,17.20
2019-06-08T11:19:26.316Z,25.17
2019-06-08T11:22:00.509Z,20.32
2019-06-08T11:24:28.991Z,24.45
2019-06-08T11:27:00.040Z,17.32
2019-06-08T11:29:32.748Z,19.77
2019-06-08T11:32:04.205Z,17.05
2019-06-08T11:34:37.470Z,18.25
2019-06-08T11:37:11.349Z,15.53
2019-06-08T11:39:39.103Z,13.68
2019-06-08T11:42:12.852Z,14.45
2019-06-08T11:44:42.211Z,13.43
2019-06-08T11:47:13.590Z,15.30
2019-06-08T11:49:44.040Z,19.02
2019-06-08T11:52:14.503Z,16.30
2019-06-08T11:54:45.127Z,17.57
2019-06-08T11:57:17.621Z,14.65
2019-06-08T11:59:49.099Z,13.35
2019-06-08T12:02:19.571Z,13.28
2019-06-08T12:04:50.066Z,12.73
2019-06-08T12:07:20.429Z,15.10
2019-06-08T12:09:50.914Z,13.68
2019-06-08T12:12:21.644Z,14.38
2019-06-08T12:14:52.164Z,13.65
2019-06-08T12:17:22.759Z,15.23
2019-06-08T12:19:53.282Z,13.40
2019-06-08T12:22:23.775Z,15.53
2019-06-08T12:24:54.245Z,13.55
2019-06-08T12:27:33.513Z,14.83
2019-06-08T12:29:58.785Z,13.25
2019-06-08T12:32:29.082Z,13.25
2019-06-08T12:35:00.128Z,13.13
2019-06-08T12:37:30.837Z,14.10
2019-06-08T12:40:01.539Z,14.38
2019-06-08T12:42:32.170Z,14.00
2019-06-08T12:45:02.581Z,13.72
2019-06-08T12:47:33.154Z,13.72
2019-06-08T12:50:05.070Z,14.53
2019-06-08T12:52:35.454Z,13.45
2019-06-08T12:55:15.917Z,12.95
2019-06-08T12:57:40.997Z,12.53
2019-06-08T13:00:13.115Z,10.25
2019-06-08T13:02:43.988Z,10.40
2019-06-08T13:05:16.646Z,11.00
2019-06-08T13:07:47.488Z,11.75
2019-06-08T13:10:23.520Z,11.57
2019-06-08T13:12:50.266Z,11.85
2019-06-08T13:15:22.024Z,13.45
2019-06-08T13:17:52.623Z,12.47
2019-06-08T13:20:23.070Z,11.78
2019-06-08T13:22:53.488Z,10.70
2019-06-08T13:25:37.459Z,11.30
2019-06-08T13:27:58.155Z,10.63
2019-06-08T13:30:31.983Z,11.22
2019-06-08T13:33:00.209Z,13.13
2019-06-08T13:35:33.902Z,11.30
2019-06-08T13:38:04.391Z,11.73
2019-06-08T13:40:34.794Z,11.08
2019-06-08T13:43:05.161Z,11.48
2019-06-08T13:45:39.137Z,11.83
2019-06-08T13:48:08.931Z,11.70
2019-06-08T13:50:39.561Z,11.10
2019-06-08T13:53:10.828Z,12.55
2019-06-08T13:55:53.383Z,11.45
2019-06-08T13:58:13.560Z,10.68
2019-06-08T14:00:44.115Z,12.23
2019-06-08T14:03:15.600Z,11.90
2019-06-08T14:05:47.813Z,12.13
2019-06-08T14:08:20.702Z,12.05
2019-06-08T14:10:50.622Z,11.80
2019-06-08T14:13:26.809Z,12.58
2019-06-08T14:15:53.194Z,13.40
2019-06-08T14:18:28.090Z,13.43
2019-06-08T14:20:58.515Z,13.05
2019-06-08T14:23:27.777Z,12.60
2019-06-08T14:26:00.250Z,12.58
2019-06-08T14:28:30.503Z,15.28
2019-06-08T14:31:00.890Z,11.93
2019-06-08T14:33:33.880Z,16.62
2019-06-08T14:36:04.261Z,22.52
2019-06-08T14:38:38.675Z,22.40
2019-06-08T14:41:07.615Z,17.80
2019-06-08T14:43:38.349Z,16.67
2019-06-08T14:46:08.821Z,15.38
2019-06-08T14:48:39.194Z,14.45
2019-06-08T14:51:09.703Z,13.32
2019-06-08T14:53:40.160Z,12.10
2019-06-08T14:56:10.979Z,14.70
2019-06-08T14:58:41.426Z,12.93
2019-06-08T15:01:11.927Z,13.62
2019-06-08T15:03:42.345Z,15.20
2019-06-08T15:06:12.921Z,12.58
2019-06-08T15:08:43.357Z,12.55
2019-06-08T15:11:13.753Z,13.95
2019-06-08T15:13:44.201Z,15.08
2019-06-08T15:16:14.890Z,15.48
2019-06-08T15:18:45.236Z,17.00
2019-06-08T15:21:20.494Z,18.87
2019-06-08T15:23:47.805Z,15.28
2019-06-08T15:26:27.049Z,16.87
2019-06-08T15:28:50.305Z,16.02
2019-06-08T15:31:21.068Z,17.45
2019-06-08T15:33:51.589Z,17.30
2019-06-08T15:36:22.391Z,17.35
2019-06-08T15:38:53.831Z,21.85
2019-06-08T15:41:24.572Z,23.18
2019-06-08T15:43:57.491Z,19.35
2019-06-08T15:46:28.311Z,18.35
2019-06-08T15:48:58.867Z,17.40
2019-06-08T15:51:33.843Z,17.62
2019-06-08T15:54:01.430Z,21.25
2019-06-08T15:56:43.161Z,23.25
2019-06-08T15:59:03.971Z,26.65
2019-06-08T16:01:34.341Z,24.12
2019-06-08T16:04:04.689Z,23.00
2019-06-08T16:06:35.156Z,22.95
2019-06-08T16:09:08.557Z,24.27
2019-06-08T16:11:39.016Z,21.85
2019-06-08T16:14:09.386Z,19.67
2019-06-08T16:16:39.737Z,22.00
2019-06-08T16:19:10.213Z,20.32
2019-06-08T16:21:40.711Z,18.62
2019-06-08T16:24:11.107Z,21.77
2019-06-08T16:26:52.634Z,22.67
2019-06-08T16:29:14.063Z,27.25
2019-06-08T16:31:44.557Z,23.07
2019-06-08T16:34:14.946Z,23.85
2019-06-08T16:36:45.435Z,24.67
2019-06-08T16:39:16.037Z,23.65
2019-06-08T16:41:46.451Z,24.32
2019-06-08T16:44:17.026Z,22.93
2019-06-08T16:46:48.048Z,23.67
2019-06-08T16:49:18.648Z,25.75
2019-06-08T16:51:49.244Z,24.67
2019-06-08T16:54:19.787Z,25.92
2019-06-08T16:56:50.264Z,26.97
2019-06-08T16:59:20.619Z,25.68
2019-06-08T17:01:51.048Z,27.70
2019-06-08T17:04:21.479Z,26.57
2019-06-08T17:06:51.931Z,25.75
2019-06-08T17:09:22.302Z,26.17
2019-06-08T17:11:52.706Z,27.60
2019-06-08T17:14:25.160Z,26.07
2019-06-08T17:16:55.316Z,28.35
2019-06-08T17:19:25.786Z,24.60
2019-06-08T17:21:56.209Z,28.00
2019-06-08T17:24:26.567Z,30.08
2019-06-08T17:26:56.950Z,28.35
2019-06-08T17:29:27.314Z,25.08
2019-06-08T17:31:57.729Z,24.43
2019-06-08T17:34:28.251Z,23.62
2019-06-08T17:36:58.668Z,21.70
2019-06-08T17:39:29.610Z,21.23
2019-06-08T17:42:00.197Z,19.23
2019-06-08T17:44:32.009Z,18.52
2019-06-08T17:47:02.814Z,19.50
2019-06-08T17:49:34.419Z,20.32
2019-06-08T17:52:05.025Z,14.68
2019-06-08T17:54:36.699Z,15.55
2019-06-08T17:57:07.120Z,18.80
2019-06-08T17:59:37.589Z,15.08
2019-06-08T18:02:13.810Z,15.78
2019-06-08T18:04:41.717Z,15.68
2019-06-08T18:07:13.233Z,15.83
2019-06-08T18:09:45.100Z,16.00
2019-06-08T18:12:15.563Z,14.45
2019-06-08T18:14:47.947Z,15.13
2019-06-08T18:17:18.026Z,15.05
2019-06-08T18:19:49.714Z,14.40
2019-06-08T18:22:20.458Z,15.18
2019-06-08T18:24:50.813Z,17.62
2019-06-08T18:27:21.295Z,16.65
2019-06-08T18:29:51.750Z,19.45
2019-06-08T18:32:22.244Z,14.40
2019-06-08T18:34:52.784Z,14.18
2019-06-08T18:37:23.246Z,16.90
2019-06-08T18:39:53.703Z,16.80
2019-06-08T18:42:24.210Z,15.45
2019-06-08T18:44:54.795Z,17.00
2019-06-08T18:47:27.258Z,14.85
2019-06-08T18:49:57.551Z,16.57
2019-06-08T18:52:28.342Z,13.60
2019-06-08T18:54:59.101Z,13.75
2019-06-08T18:57:29.791Z,14.98
2019-06-08T19:00:00.196Z,13.50
2019-06-08T19:02:30.680Z,16.87
2019-06-08T19:05:01.152Z,16.82
2019-06-08T19:07:32.326Z,14.85
2019-06-08T19:10:03.205Z,14.18
2019-06-08T19:12:33.629Z,12.93
2019-06-08T19:15:05.341Z,11.03
2019-06-08T19:17:39.782Z,13.72
2019-06-08T19:20:08.005Z,11.08
2019-06-08T19:22:42.867Z,11.43
2019-06-08T19:25:10.495Z,12.70
2019-06-08T19:27:45.926Z,11.53
2019-06-08T19:30:13.136Z,12.23
2019-06-08T19:32:44.708Z,11.95
2019-06-08T19:35:18.271Z,12.45
2019-06-08T19:37:53.280Z,11.08
2019-06-08T19:40:21.902Z,10.90
2019-06-08T19:42:57.407Z,9.40
2019-06-08T19:45:24.645Z,16.23
2019-06-08T19:47:57.588Z,10.72
2019-06-08T19:50:28.689Z,12.23
2019-06-08T19:52:59.502Z,12.03
2019-06-08T19:55:29.938Z,15.32
2019-06-08T19:58:00.342Z,11.68
2019-06-08T20:00:30.796Z,10.93
2019-06-08T20:03:01.188Z,9.83
2019-06-08T20:05:31.630Z,10.03
2019-06-08T20:08:02.038Z,10.43
2019-06-08T20:10:32.439Z,9.05
2019-06-08T20:13:02.826Z,9.95
2019-06-08T20:15:33.338Z,10.43
2019-06-08T20:18:03.744Z,11.57
2019-06-08T20:20:34.251Z,8.88
2019-06-08T20:23:04.729Z,9.20
2019-06-08T20:25:35.169Z,7.45
2019-06-08T20:28:07.774Z,9.33
2019-06-08T20:30:37.772Z,6.35
2019-06-08T20:33:08.321Z,13.30
2019-06-08T20:35:38.760Z,8.68
2019-06-08T20:38:09.200Z,7.40
2019-06-08T20:40:39.765Z,5.50
2019-06-08T20:43:10.211Z,5.60
2019-06-08T20:45:42.037Z,4.03
2019-06-08T20:48:13.056Z,8.25
2019-06-08T20:50:44.333Z,5.45
2019-06-08T20:53:17.619Z,3.40
2019-06-08T20:55:48.240Z,3.45
2019-06-08T20:58:19.957Z,4.08
2019-06-08T21:00:51.621Z,6.42
2019-06-08T21:03:22.691Z,3.05
2019-06-08T21:05:54.218Z,4.40
2019-06-08T21:08:24.866Z,5.55
2019-06-08T21:10:56.559Z,3.27
2019-06-08T21:13:27.562Z,4.08
2019-06-08T21:16:00.580Z,3.65
2019-06-08T21:18:30.591Z,4.40
2019-06-08T21:21:00.964Z,5.90
2019-06-08T21:23:32.275Z,5.92
2019-06-08T21:26:02.731Z,2.90
2019-06-08T21:28:33.225Z,6.72
2019-06-08T21:31:03.749Z,4.92
2019-06-08T21:33:34.224Z,6.08
2019-06-08T21:36:08.366Z,5.03
2019-06-08T21:38:37.666Z,6.28
2019-06-08T21:41:08.487Z,4.90
2019-06-08T21:43:38.933Z,3.27
2019-06-08T21:46:09.368Z,3.52
2019-06-08T21:48:39.824Z,5.03
2019-06-08T21:51:10.269Z,3.72
2019-06-08T21:53:40.789Z,4.35
2019-06-08T21:56:11.749Z,4.45
2019-06-08T21:58:42.140Z,5.30
2019-06-08T22:01:12.652Z,6.78
2019-06-08T22:03:43.157Z,4.25
2019-06-08T22:06:13.774Z,4.53
2019-06-08T22:08:44.447Z,5.10
2019-06-08T22:11:14.782Z,5.05
2019-06-08T22:13:47.479Z,4.70
2019-06-08T22:16:17.368Z,5.05
2019-06-08T22:18:47.718Z,4.53
2019-06-08T22:21:18.231Z,4.60
2019-06-08T22:23:48.714Z,5.87
2019-06-08T22:26:19.070Z,3.92
2019-06-08T22:28:49.475Z,4.55
2019-06-08T22:31:23.025Z,4.70
2019-06-08T22:33:53.036Z,3.77
2019-06-08T22:36:24.137Z,4.42
2019-06-08T22:38:54.510Z,5.97
2019-06-08T22:41:24.984Z,4.67
2019-06-08T22:43:57.914Z,3.80
2019-06-08T22:46:27.401Z,3.87
2019-06-08T22:49:01.190Z,5.10
2019-06-08T22:51:29.983Z,5.42
2019-06-08T22:54:02.017Z,4.92
2019-06-08T22:56:32.633Z,5.35
2019-06-08T22:59:04.738Z,2.55
2019-06-08T23:01:35.264Z,6.83
2019-06-08T23:04:08.620Z,4.53
2019-06-08T23:06:38.630Z,5.85
2019-06-08T23:09:09.171Z,6.78
2019-06-08T23:11:39.515Z,5.08
2019-06-08T23:14:13.294Z,5.60
2019-06-08T23:16:43.422Z,4.62
2019-06-08T23:19:13.949Z,4.20
2019-06-08T23:21:44.357Z,5.17
2019-06-08T23:24:14.718Z,4.10
2019-06-08T23:26:45.081Z,5.28
2019-06-08T23:29:17.870Z,6.60
2019-06-08T23:31:48.172Z,8.70
2019-06-08T23:34:19.057Z,6.42
2019-06-08T23:36:58.632Z,4.28
2019-06-08T23:39:21.622Z,8.80
2019-06-08T23:41:52.005Z,4.50
2019-06-08T23:44:22.553Z,5.45
2019-06-08T23:46:53.150Z,6.90
2019-06-08T23:49:23.576Z,3.95
2019-06-08T23:51:54.025Z,6.22
2019-06-08T23:54:24.586Z,6.22
2019-06-08T23:56:55.020Z,5.47
2019-06-08T23:59:27.588Z,7.47
